Apiliotis — SYVY — position and weather

sailwx.info

Track history (hours):
 
Tides and Currents Weather Stations Pressure Air Temp Water Temp Dewpoint Dewpoint Depression Visibility Wind Speed Wind Dir Waves Ship Positions

Apiliotis

Last reported at 2015-May-28 14:07 UTC. Time now 2015-May-29 20:31 UTC.
Position N 36°39' E 024°55'.

Length 79 m; draft 4.5 m.

Type: Ship. MMSI: 240438000.

Date/timePositionNaut miles runAvg speedWind from/ knotsBaromVisibWave heightAir tempDewpointWater temp
2015-May-28 14:07N 36°39' E 024°55'3 5.2
2015-May-28 13:33N 36°37' E 024°57'0 0.0
2015-May-28 12:30N 36°37' E 024°57'30 5.6
2015-May-28 07:11N 37°02' E 024°37'810.4
2015-May-28 06:24N 37°08' E 024°44'910.9
2015-May-28 05:33N 37°14' E 024°53'1111.1
2015-May-28 04:33N 37°20' E 025°04'1110.9
2015-May-28 03:34N 37°27' E 025°15'4 3.9
2015-May-28 02:33N 37°28' E 025°19'0 0.0
2015-May-28 01:33N 37°28' E 025°19'0 0.0
2015-May-28 00:33N 37°28' E 025°19'0 0.0
2015-May-27 23:33N 37°28' E 025°19'0 0.5
2015-May-27 22:33N 37°27' E 025°19'0 0.0
2015-May-27 21:33N 37°27' E 025°19'0 0.2
2015-May-27 20:33N 37°28' E 025°19'1211.7
2015-May-27 19:33N 37°32' E 025°05'1212.1
2015-May-27 18:34N 37°41' E 024°55'107 2.4
2015-May-25 22:32N 39°27' E 024°51'8 7.6
2015-May-25 21:31N 39°32' E 024°59'0 0.0
2015-May-25 20:33N 39°32' E 024°59'0 0.0
2015-May-25 17:32N 39°32' E 024°59'15 2.2
2015-May-25 10:30N 39°47' E 025°00'3 0.4
2015-May-25 03:28N 39°48' E 025°04'  
2015-May-22 17:33N 37°52' E 025°34'1110.7
2015-May-22 16:33N 37°43' E 025°27'1110.7
2015-May-22 15:33N 37°33' E 025°21'6 5.7
2015-May-22 14:33N 37°28' E 025°20'0 0.0
2015-May-22 13:33N 37°28' E 025°20'0 0.0
2015-May-22 12:33N 37°28' E 025°20'6 6.0
2015-May-22 11:33N 37°29' E 025°12'1110.7
2015-May-22 10:33N 37°31' E 024°59'1110.9
2015-May-22 09:33N 37°32' E 024°45'32 4.5
2015-May-22 02:25N 37°30' E 024°05'910.7
2015-May-22 01:33N 37°34' E 023°54'1111.0
2015-May-22 00:33N 37°39' E 023°42'1111.1
2015-May-21 23:33N 37°49' E 023°36'1110.8
2015-May-21 22:33N 37°53' E 023°23'8 8.2
2015-May-21 21:32N 38°00' E 023°28'6 6.1
2015-May-21 20:33N 38°02' E 023°36'0 0.0
2015-May-21 19:33N 38°02' E 023°36'0 0.0
2015-May-21 18:33N 38°02' E 023°36'0 0.0
2015-May-21 17:33N 38°02' E 023°36'0 0.0
2015-May-21 16:33N 38°02' E 023°36'0 0.0
2015-May-21 10:33N 38°02' E 023°36'3 2.5
2015-May-21 09:33N 38°02' E 023°32'0 0.0
2015-May-21 08:33N 38°02' E 023°32'0 0.0
2015-May-21 07:33N 38°02' E 023°32'0 0.0
2015-May-21 06:33N 38°02' E 023°32'0 0.0
2015-May-21 05:33N 38°02' E 023°32'1 0.6
2015-May-21 04:33N 38°01' E 023°32'0 0.0
2015-May-21 03:33N 38°01' E 023°32'0 0.0
2015-May-21 02:33N 38°01' E 023°32'0 0.0
2015-May-21 01:33N 38°01' E 023°32'0 0.0
2015-May-21 00:33N 38°01' E 023°32'0 0.0
2015-May-20 23:33N 38°01' E 023°32'0 0.0
2015-May-20 22:33N 38°01' E 023°32'0 0.0
2015-May-20 21:33N 38°01' E 023°32'0 0.1
2015-May-20 20:33N 38°01' E 023°32'0 0.0
2015-May-20 19:33N 38°01' E 023°32'0 0.0
2015-May-20 18:33N 38°01' E 023°32'0 0.0
2015-May-20 17:33N 38°01' E 023°33'0 0.0
2015-May-20 16:33N 38°01' E 023°33'0 0.1
2015-May-20 15:33N 38°01' E 023°32'0 0.1
2015-May-20 14:33N 38°01' E 023°32'0 0.0
2015-May-20 13:34N 38°01' E 023°32'0 0.1
2015-May-20 12:33N 38°01' E 023°32'0 0.0
2015-May-20 11:33N 38°01' E 023°32'0 0.1
2015-May-20 10:33N 38°01' E 023°33'0 0.0
2015-May-20 09:33N 38°01' E 023°32'0 0.0
2015-May-20 08:33N 38°01' E 023°32'0 0.0
2015-May-20 07:33N 38°01' E 023°32'0 0.0
2015-May-20 06:33N 38°01' E 023°32'0 0.0
2015-May-20 05:33N 38°01' E 023°32'0 0.0
2015-May-20 04:32N 38°01' E 023°32'0 0.0
2015-May-20 03:33N 38°01' E 023°32'0 0.1
2015-May-20 02:33N 38°01' E 023°32'0 0.0
2015-May-20 01:33N 38°01' E 023°32'0 0.1
2015-May-20 00:33N 38°01' E 023°32'0 0.0
2015-May-19 23:33N 38°01' E 023°32'0 0.0
2015-May-19 22:33N 38°01' E 023°32'0 0.0
2015-May-19 21:33N 38°01' E 023°32'0 0.0
2015-May-19 20:33N 38°01' E 023°32'0 0.1
2015-May-19 19:33N 38°01' E 023°32'0 0.1
2015-May-19 18:33N 38°01' E 023°32'0 0.0
2015-May-19 17:33N 38°01' E 023°32'0 0.0
2015-May-19 16:33N 38°01' E 023°32'0 0.0
2015-May-19 15:33N 38°01' E 023°32'0 0.0
2015-May-19 14:33N 38°01' E 023°32'0 0.0
2015-May-19 13:33N 38°01' E 023°32'0 0.0
2015-May-19 12:33N 38°01' E 023°32'0 0.0
2015-May-19 11:33N 38°01' E 023°32'0 0.0
2015-May-19 10:33N 38°01' E 023°32'0 0.0
2015-May-19 09:33N 38°01' E 023°32'0 0.0
2015-May-19 08:33N 38°01' E 023°32'0 0.0
2015-May-19 07:33N 38°01' E 023°32'1 0.6
2015-May-19 06:33N 38°02' E 023°33'0 0.1
2015-May-19 05:34N 38°02' E 023°33'1 0.6
2015-May-19 04:33N 38°01' E 023°32'0 0.0
2015-May-19 03:33N 38°01' E 023°32'0 0.0
2015-May-19 02:33N 38°01' E 023°32'0 0.0
2015-May-19 01:33N 38°01' E 023°32'0 0.0
2015-May-19 00:33N 38°01' E 023°32'0 0.0
2015-May-18 23:33N 38°01' E 023°32'0 0.0
2015-May-18 22:33N 38°01' E 023°32'0 0.0
2015-May-18 21:33N 38°01' E 023°32'0 0.1
2015-May-18 20:34N 38°01' E 023°32'0 0.0
2015-May-18 19:33N 38°01' E 023°32'0 0.0
2015-May-18 18:33N 38°01' E 023°32'0 0.0
2015-May-18 17:34N 38°01' E 023°32'6 6.3
2015-May-18 16:33N 37°56' E 023°36'1111.2
2015-May-18 15:33N 37°46' E 023°42'1211.7
2015-May-18 14:33N 37°38' E 023°53'  
Track history (hours):
 
Tides and Currents Weather Stations Pressure Air Temp Water Temp Dewpoint Dewpoint Depression Visibility Wind Speed Wind Dir Waves Ship Positions

Apiliotis

Last reported at 2015-May-28 14:07 UTC. Time now 2015-May-29 20:31 UTC.
Position N 36°39' E 024°55'.

Length 79 m; draft 4.5 m.

Type: Ship. MMSI: 240438000.

Date/timePositionNaut miles runAvg speedWind from/ knotsBaromVisibWave heightAir tempDewpointWater temp
2015-May-28 14:07N 36°39' E 024°55'3 5.2
2015-May-28 13:33N 36°37' E 024°57'0 0.0
2015-May-28 12:30N 36°37' E 024°57'30 5.6
2015-May-28 07:11N 37°02' E 024°37'810.4
2015-May-28 06:24N 37°08' E 024°44'910.9
2015-May-28 05:33N 37°14' E 024°53'1111.1
2015-May-28 04:33N 37°20' E 025°04'1110.9
2015-May-28 03:34N 37°27' E 025°15'4 3.9
2015-May-28 02:33N 37°28' E 025°19'0 0.0
2015-May-28 01:33N 37°28' E 025°19'0 0.0
2015-May-28 00:33N 37°28' E 025°19'0 0.0
2015-May-27 23:33N 37°28' E 025°19'0 0.5
2015-May-27 22:33N 37°27' E 025°19'0 0.0
2015-May-27 21:33N 37°27' E 025°19'0 0.2
2015-May-27 20:33N 37°28' E 025°19'1211.7
2015-May-27 19:33N 37°32' E 025°05'1212.1
2015-May-27 18:34N 37°41' E 024°55'107 2.4
2015-May-25 22:32N 39°27' E 024°51'8 7.6
2015-May-25 21:31N 39°32' E 024°59'0 0.0
2015-May-25 20:33N 39°32' E 024°59'0 0.0
2015-May-25 17:32N 39°32' E 024°59'15 2.2
2015-May-25 10:30N 39°47' E 025°00'3 0.4
2015-May-25 03:28N 39°48' E 025°04'  
2015-May-22 17:33N 37°52' E 025°34'1110.7
2015-May-22 16:33N 37°43' E 025°27'1110.7
2015-May-22 15:33N 37°33' E 025°21'6 5.7
2015-May-22 14:33N 37°28' E 025°20'0 0.0
2015-May-22 13:33N 37°28' E 025°20'0 0.0
2015-May-22 12:33N 37°28' E 025°20'6 6.0
2015-May-22 11:33N 37°29' E 025°12'1110.7
2015-May-22 10:33N 37°31' E 024°59'1110.9
2015-May-22 09:33N 37°32' E 024°45'32 4.5
2015-May-22 02:25N 37°30' E 024°05'910.7
2015-May-22 01:33N 37°34' E 023°54'1111.0
2015-May-22 00:33N 37°39' E 023°42'1111.1
2015-May-21 23:33N 37°49' E 023°36'1110.8
2015-May-21 22:33N 37°53' E 023°23'8 8.2
2015-May-21 21:32N 38°00' E 023°28'6 6.1
2015-May-21 20:33N 38°02' E 023°36'0 0.0
2015-May-21 19:33N 38°02' E 023°36'0 0.0
2015-May-21 18:33N 38°02' E 023°36'0 0.0
2015-May-21 17:33N 38°02' E 023°36'0 0.0
2015-May-21 16:33N 38°02' E 023°36'0 0.0
2015-May-21 10:33N 38°02' E 023°36'3 2.5
2015-May-21 09:33N 38°02' E 023°32'0 0.0
2015-May-21 08:33N 38°02' E 023°32'0 0.0
2015-May-21 07:33N 38°02' E 023°32'0 0.0
2015-May-21 06:33N 38°02' E 023°32'0 0.0
2015-May-21 05:33N 38°02' E 023°32'1 0.6
2015-May-21 04:33N 38°01' E 023°32'0 0.0
2015-May-21 03:33N 38°01' E 023°32'0 0.0
2015-May-21 02:33N 38°01' E 023°32'0 0.0
2015-May-21 01:33N 38°01' E 023°32'0 0.0
2015-May-21 00:33N 38°01' E 023°32'0 0.0
2015-May-20 23:33N 38°01' E 023°32'0 0.0
2015-May-20 22:33N 38°01' E 023°32'0 0.0
2015-May-20 21:33N 38°01' E 023°32'0 0.1
2015-May-20 20:33N 38°01' E 023°32'0 0.0
2015-May-20 19:33N 38°01' E 023°32'0 0.0
2015-May-20 18:33N 38°01' E 023°32'0 0.0
2015-May-20 17:33N 38°01' E 023°33'0 0.0
2015-May-20 16:33N 38°01' E 023°33'0 0.1
2015-May-20 15:33N 38°01' E 023°32'0 0.1
2015-May-20 14:33N 38°01' E 023°32'0 0.0
2015-May-20 13:34N 38°01' E 023°32'0 0.1
2015-May-20 12:33N 38°01' E 023°32'0 0.0
2015-May-20 11:33N 38°01' E 023°32'0 0.1
2015-May-20 10:33N 38°01' E 023°33'0 0.0
2015-May-20 09:33N 38°01' E 023°32'0 0.0
2015-May-20 08:33N 38°01' E 023°32'0 0.0
2015-May-20 07:33N 38°01' E 023°32'0 0.0
2015-May-20 06:33N 38°01' E 023°32'0 0.0
2015-May-20 05:33N 38°01' E 023°32'0 0.0
2015-May-20 04:32N 38°01' E 023°32'0 0.0
2015-May-20 03:33N 38°01' E 023°32'0 0.1
2015-May-20 02:33N 38°01' E 023°32'0 0.0
2015-May-20 01:33N 38°01' E 023°32'0 0.1
2015-May-20 00:33N 38°01' E 023°32'0 0.0
2015-May-19 23:33N 38°01' E 023°32'0 0.0
2015-May-19 22:33N 38°01' E 023°32'0 0.0
2015-May-19 21:33N 38°01' E 023°32'0 0.0
2015-May-19 20:33N 38°01' E 023°32'0 0.1
2015-May-19 19:33N 38°01' E 023°32'0 0.1
2015-May-19 18:33N 38°01' E 023°32'0 0.0
2015-May-19 17:33N 38°01' E 023°32'0 0.0
2015-May-19 16:33N 38°01' E 023°32'0 0.0
2015-May-19 15:33N 38°01' E 023°32'0 0.0
2015-May-19 14:33N 38°01' E 023°32'0 0.0
2015-May-19 13:33N 38°01' E 023°32'0 0.0
2015-May-19 12:33N 38°01' E 023°32'0 0.0
2015-May-19 11:33N 38°01' E 023°32'0 0.0
2015-May-19 10:33N 38°01' E 023°32'0 0.0
2015-May-19 09:33N 38°01' E 023°32'0 0.0
2015-May-19 08:33N 38°01' E 023°32'0 0.0
2015-May-19 07:33N 38°01' E 023°32'1 0.6
2015-May-19 06:33N 38°02' E 023°33'0 0.1
2015-May-19 05:34N 38°02' E 023°33'1 0.6
2015-May-19 04:33N 38°01' E 023°32'0 0.0
2015-May-19 03:33N 38°01' E 023°32'0 0.0
2015-May-19 02:33N 38°01' E 023°32'0 0.0
2015-May-19 01:33N 38°01' E 023°32'0 0.0
2015-May-19 00:33N 38°01' E 023°32'0 0.0
2015-May-18 23:33N 38°01' E 023°32'0 0.0
2015-May-18 22:33N 38°01' E 023°32'0 0.0
2015-May-18 21:33N 38°01' E 023°32'0 0.1
2015-May-18 20:34N 38°01' E 023°32'0 0.0
2015-May-18 19:33N 38°01' E 023°32'0 0.0
2015-May-18 18:33N 38°01' E 023°32'0 0.0
2015-May-18 17:34N 38°01' E 023°32'6 6.3
2015-May-18 16:33N 37°56' E 023°36'1111.2
2015-May-18 15:33N 37°46' E 023°42'1211.7
2015-May-18 14:33N 37°38' E 023°53'  

Dump ship's entire track history